createdAt,value
2019-05-12T00:01:20.456Z,9.10
2019-05-12T00:04:04.830Z,9.10
2019-05-12T00:06:34.743Z,9.10
2019-05-12T00:09:09.869Z,9.30
2019-05-12T00:11:44.682Z,9.30
2019-05-12T00:14:17.765Z,9.30
2019-05-12T00:16:50.578Z,9.20
2019-05-12T00:19:20.360Z,9.10
2019-05-12T00:21:52.297Z,9.00
2019-05-12T00:24:22.030Z,8.90
2019-05-12T00:26:58.573Z,8.90
2019-05-12T00:29:33.302Z,8.90
2019-05-12T00:32:03.257Z,8.90
2019-05-12T00:34:35.822Z,8.90
2019-05-12T00:37:05.730Z,8.90
2019-05-12T00:39:40.891Z,9.00
2019-05-12T00:42:10.959Z,9.00
2019-05-12T00:44:40.730Z,9.00
2019-05-12T00:47:10.481Z,8.90
2019-05-12T00:49:44.903Z,9.00
2019-05-12T00:52:14.673Z,8.90
2019-05-12T00:54:44.661Z,8.70
2019-05-12T00:57:14.818Z,8.70
2019-05-12T00:59:47.789Z,8.70
2019-05-12T01:02:18.410Z,8.80
2019-05-12T01:04:53.923Z,8.80
2019-05-12T01:07:23.942Z,8.70
2019-05-12T01:09:54.982Z,8.70
2019-05-12T01:12:24.828Z,8.70
2019-05-12T01:14:54.546Z,8.60
2019-05-12T01:17:28.486Z,8.70
2019-05-12T01:20:00.755Z,8.60
2019-05-12T01:22:31.138Z,8.70
2019-05-12T01:25:02.071Z,8.70
2019-05-12T01:27:37.883Z,8.70
2019-05-12T01:30:08.787Z,8.80
2019-05-12T01:32:40.317Z,8.80
2019-05-12T01:35:11.313Z,8.80
2019-05-12T01:37:41.060Z,8.80
2019-05-12T01:40:21.962Z,8.80
2019-05-12T01:42:58.169Z,8.70
2019-05-12T01:45:31.980Z,8.70
2019-05-12T01:48:03.240Z,8.70
2019-05-12T01:50:33.014Z,8.60
2019-05-12T01:53:02.786Z,8.60
2019-05-12T01:55:32.801Z,8.60
2019-05-12T01:58:03.157Z,8.60
2019-05-12T02:00:34.340Z,8.60
2019-05-12T02:03:09.824Z,8.60
2019-05-12T02:05:43.334Z,8.60
2019-05-12T02:08:22.296Z,8.60
2019-05-12T02:10:55.491Z,8.50
2019-05-12T02:13:29.935Z,8.50
2019-05-12T02:16:04.237Z,8.50
2019-05-12T02:18:33.986Z,8.50
2019-05-12T02:21:03.791Z,8.50
2019-05-12T02:23:38.580Z,8.50
2019-05-12T02:26:10.908Z,8.50
2019-05-12T02:28:41.153Z,8.50
2019-05-12T02:31:11.198Z,8.50
2019-05-12T02:33:48.424Z,8.50
2019-05-12T02:36:21.174Z,8.50
2019-05-12T02:38:50.948Z,8.50
2019-05-12T02:41:20.808Z,8.40
2019-05-12T02:43:50.543Z,8.40
2019-05-12T02:46:21.754Z,8.50
2019-05-12T02:48:54.512Z,8.60
2019-05-12T02:51:28.107Z,8.60
2019-05-12T02:53:58.304Z,8.70
2019-05-12T02:56:30.582Z,8.70
2019-05-12T02:59:05.155Z,8.70
2019-05-12T03:01:35.830Z,8.60
2019-05-12T03:04:06.128Z,8.70
2019-05-12T03:06:37.096Z,8.70
2019-05-12T03:09:09.015Z,8.60
2019-05-12T03:11:44.765Z,8.60
2019-05-12T03:14:15.565Z,8.60
2019-05-12T03:16:45.648Z,8.60
2019-05-12T03:19:15.445Z,8.60
2019-05-12T03:21:49.657Z,8.60
2019-05-12T03:24:19.434Z,8.60
2019-05-12T03:26:50.711Z,8.70
2019-05-12T03:29:25.032Z,8.70
2019-05-12T03:31:57.029Z,8.70
2019-05-12T03:34:29.475Z,8.70
2019-05-12T03:36:59.746Z,8.60
2019-05-12T03:39:34.401Z,8.60
2019-05-12T03:42:05.208Z,8.70
2019-05-12T03:44:35.360Z,8.60
2019-05-12T03:47:05.281Z,8.50
2019-05-12T03:49:35.209Z,8.40
2019-05-12T03:52:05.467Z,8.30
2019-05-12T03:54:35.274Z,8.40
2019-05-12T03:57:05.066Z,8.40
2019-05-12T03:59:35.056Z,8.40
2019-05-12T04:02:06.199Z,8.40
2019-05-12T04:04:36.014Z,8.40
2019-05-12T04:07:05.768Z,8.50
2019-05-12T04:09:35.555Z,8.40
2019-05-12T04:12:05.482Z,8.40
2019-05-12T04:14:35.254Z,8.40
2019-05-12T04:17:05.103Z,8.50
2019-05-12T04:19:34.927Z,8.60
2019-05-12T04:22:05.643Z,8.70
2019-05-12T04:24:35.971Z,8.70
2019-05-12T04:27:05.761Z,8.70
2019-05-12T04:29:35.582Z,8.80
2019-05-12T04:32:05.442Z,8.80
2019-05-12T04:34:38.395Z,8.80
2019-05-12T04:37:08.259Z,8.80
2019-05-12T04:39:44.741Z,8.70
2019-05-12T04:42:14.922Z,8.80
2019-05-12T04:44:45.020Z,8.90
2019-05-12T04:47:16.099Z,8.90
2019-05-12T04:49:45.860Z,9.00
2019-05-12T04:52:24.936Z,8.90
2019-05-12T04:54:57.686Z,8.90
2019-05-12T04:57:27.444Z,8.80
2019-05-12T04:59:57.222Z,8.70
2019-05-12T05:02:26.994Z,8.70
2019-05-12T05:04:56.819Z,8.70
2019-05-12T05:07:26.869Z,8.60
2019-05-12T05:09:56.681Z,8.70
2019-05-12T05:12:26.478Z,8.80
2019-05-12T05:14:56.313Z,8.80
2019-05-12T05:17:27.879Z,8.80
2019-05-12T05:20:03.955Z,8.80
2019-05-12T05:22:34.209Z,8.80
2019-05-12T05:25:04.384Z,8.80
2019-05-12T05:27:34.346Z,8.80
2019-05-12T05:30:04.349Z,8.80
2019-05-12T05:32:34.137Z,8.80
2019-05-12T05:35:07.199Z,8.90
2019-05-12T05:37:36.923Z,9.00
2019-05-12T05:40:07.022Z,9.00
2019-05-12T05:42:44.955Z,9.10
2019-05-12T05:45:19.610Z,9.10
2019-05-12T05:47:48.943Z,9.10
2019-05-12T05:50:18.425Z,9.10
2019-05-12T05:52:49.161Z,9.10
2019-05-12T05:55:27.652Z,9.20
2019-05-12T05:57:59.851Z,9.10
2019-05-12T06:00:29.026Z,9.10
2019-05-12T06:02:58.929Z,9.20
2019-05-12T06:05:30.779Z,9.30
2019-05-12T06:08:00.040Z,9.40
2019-05-12T06:10:36.051Z,9.60
2019-05-12T06:13:03.774Z,9.80
2019-05-12T06:15:53.722Z,10.00
2019-05-12T06:18:24.059Z,10.00
2019-05-12T06:20:57.017Z,9.90
2019-05-12T06:23:34.886Z,9.80
2019-05-12T06:26:04.667Z,9.80
2019-05-12T06:28:57.299Z,9.80
2019-05-12T06:31:29.764Z,9.80
2019-05-12T06:33:56.804Z,10.00
2019-05-12T06:36:54.766Z,10.00
2019-05-12T06:39:23.693Z,10.10
2019-05-12T06:41:56.710Z,10.20
2019-05-12T06:44:24.958Z,10.20
2019-05-12T06:47:06.950Z,10.10
2019-05-12T06:49:37.358Z,9.90
2019-05-12T06:52:10.990Z,9.80
2019-05-12T06:54:51.013Z,9.80
2019-05-12T06:57:24.075Z,9.80
2019-05-12T06:59:51.133Z,9.70
2019-05-12T07:02:20.666Z,9.80
2019-05-12T07:04:58.837Z,9.90
2019-05-12T07:07:27.595Z,10.10
2019-05-12T07:10:07.967Z,10.30
2019-05-12T07:12:43.534Z,10.50
2019-05-12T07:15:09.207Z,10.60
2019-05-12T07:18:09.953Z,10.40
2019-05-12T07:20:40.595Z,10.40
2019-05-12T07:23:10.312Z,10.10
2019-05-12T07:25:47.015Z,9.90
2019-05-12T07:28:36.302Z,9.90
2019-05-12T07:31:07.391Z,9.90
2019-05-12T07:33:47.570Z,10.00
2019-05-12T07:36:18.518Z,9.90
2019-05-12T07:39:13.405Z,10.10
2019-05-12T07:41:55.103Z,10.40
2019-05-12T07:44:44.141Z,10.80
2019-05-12T07:47:19.380Z,10.90
2019-05-12T07:49:57.262Z,11.00
2019-05-12T07:52:33.723Z,11.30
2019-05-12T07:54:58.999Z,11.40
2019-05-12T07:58:28.005Z,11.40
2019-05-12T08:02:14.281Z,11.20
2019-05-12T08:05:03.876Z,11.30
2019-05-12T08:08:11.155Z,11.40
2019-05-12T08:14:39.663Z,11.60
2019-05-12T08:17:57.708Z,11.50
2019-05-12T08:20:25.557Z,11.50
2019-05-12T08:23:37.597Z,11.50
2019-05-12T08:26:12.051Z,11.50
2019-05-12T08:28:40.461Z,11.60
2019-05-12T08:32:23.411Z,11.70
2019-05-12T08:39:17.299Z,12.20
2019-05-12T08:42:39.150Z,12.30
2019-05-12T08:45:38.384Z,12.60
2019-05-12T08:51:49.741Z,12.60
2019-05-12T08:54:54.410Z,12.50
2019-05-12T08:57:17.488Z,12.40
2019-05-12T09:00:10.563Z,12.40
2019-05-12T09:03:06.584Z,12.30
2019-05-12T09:05:39.603Z,12.30
2019-05-12T09:08:19.902Z,12.20
2019-05-12T09:11:24.254Z,12.40
2019-05-12T09:14:00.365Z,12.40
2019-05-12T09:16:25.453Z,12.10
2019-05-12T09:18:55.471Z,12.20
2019-05-12T09:22:26.284Z,12.20
2019-05-12T09:25:10.913Z,12.20
2019-05-12T09:27:47.975Z,12.30
2019-05-12T09:30:40.100Z,12.40
2019-05-12T09:36:11.324Z,12.30
2019-05-12T09:38:43.864Z,12.20
2019-05-12T09:44:26.489Z,12.30
2019-05-12T09:47:27.361Z,12.30
2019-05-12T09:49:41.419Z,12.40
2019-05-12T09:52:22.350Z,12.40
2019-05-12T09:58:07.863Z,12.30
2019-05-12T10:02:16.516Z,12.40
2019-05-12T10:08:29.316Z,12.40
2019-05-12T10:11:05.077Z,12.30
2019-05-12T10:14:06.471Z,12.30
2019-05-12T10:20:14.954Z,12.20
2019-05-12T10:22:45.066Z,12.60
2019-05-12T10:27:47.885Z,12.70
2019-05-12T10:30:47.301Z,12.90
2019-05-12T10:34:23.582Z,13.10
2019-05-12T10:37:47.359Z,13.30
2019-05-12T10:40:17.890Z,13.20
2019-05-12T10:42:53.433Z,13.00
2019-05-12T10:49:23.350Z,12.70
2019-05-12T10:51:54.279Z,12.70
2019-05-12T10:54:25.013Z,12.70
2019-05-12T10:57:14.083Z,12.80
2019-05-12T11:03:16.939Z,13.30
2019-05-12T11:06:14.117Z,13.30
2019-05-12T11:09:14.053Z,13.10
2019-05-12T11:12:40.936Z,13.10
2019-05-12T11:21:44.311Z,12.80
2019-05-12T11:24:27.168Z,12.70
2019-05-12T11:43:17.231Z,12.90
2019-05-12T11:50:10.217Z,13.10
2019-05-12T11:52:51.196Z,13.20
2019-05-12T11:56:13.852Z,13.00
2019-05-12T11:58:49.632Z,12.90
2019-05-12T12:01:39.727Z,13.00
2019-05-12T12:04:54.307Z,12.90
2019-05-12T12:08:35.652Z,12.90
2019-05-12T12:12:03.174Z,13.10
2019-05-12T12:18:04.081Z,13.30
2019-05-12T12:20:34.423Z,13.40
2019-05-12T12:23:28.211Z,13.40
2019-05-12T12:26:34.980Z,13.50
2019-05-12T12:29:13.604Z,13.60
2019-05-12T12:32:10.006Z,13.60
2019-05-12T12:38:33.435Z,13.80
2019-05-12T12:41:35.131Z,13.50
2019-05-12T12:44:59.275Z,13.30
2019-05-12T12:47:50.813Z,13.20
2019-05-12T12:50:41.056Z,13.20
2019-05-12T12:53:17.487Z,13.30
2019-05-12T12:56:18.151Z,13.10
2019-05-12T12:59:50.999Z,13.10
2019-05-12T13:02:27.555Z,13.10
2019-05-12T13:05:13.581Z,13.00
2019-05-12T13:12:16.040Z,12.80
2019-05-12T13:15:14.293Z,13.00
2019-05-12T13:20:40.245Z,13.50
2019-05-12T13:23:34.782Z,13.70
2019-05-12T13:25:58.910Z,13.80
2019-05-12T13:29:08.146Z,13.50
2019-05-12T13:32:13.767Z,13.40
2019-05-12T13:35:28.981Z,13.40
2019-05-12T13:44:00.422Z,13.40
2019-05-12T13:50:21.281Z,13.10
2019-05-12T13:56:53.393Z,13.10
2019-05-12T14:00:10.472Z,13.40
2019-05-12T14:03:14.229Z,13.40
2019-05-12T14:06:37.600Z,13.50
2019-05-12T14:09:30.631Z,13.70
2019-05-12T14:12:01.308Z,13.60
2019-05-12T14:28:28.115Z,13.40
2019-05-12T14:31:30.297Z,13.40
2019-05-12T14:34:19.279Z,13.40
2019-05-12T14:37:10.563Z,13.60
2019-05-12T14:40:05.182Z,13.50
2019-05-12T14:42:44.231Z,13.50
2019-05-12T14:45:36.798Z,13.50
2019-05-12T14:48:22.245Z,13.30
2019-05-12T14:50:57.646Z,13.30
2019-05-12T14:53:47.922Z,13.10
2019-05-12T14:56:55.432Z,12.80
2019-05-12T15:00:04.489Z,12.60
2019-05-12T15:02:37.957Z,12.50
2019-05-12T15:06:04.098Z,12.30
2019-05-12T15:08:55.948Z,12.30
2019-05-12T15:15:09.142Z,12.30
2019-05-12T15:18:03.124Z,12.30
2019-05-12T15:20:56.640Z,12.40
2019-05-12T15:23:38.658Z,12.30
2019-05-12T15:29:56.191Z,12.10
2019-05-12T15:36:29.979Z,12.00
2019-05-12T15:39:29.514Z,12.10
2019-05-12T15:42:28.141Z,12.00
2019-05-12T15:45:17.978Z,11.90
2019-05-12T15:51:16.962Z,11.80
2019-05-12T15:57:14.547Z,11.70
2019-05-12T16:03:30.684Z,11.50
2019-05-12T16:06:12.485Z,11.50
2019-05-12T16:12:37.176Z,11.30
2019-05-12T16:18:57.278Z,11.30
2019-05-12T16:36:51.885Z,11.30
2019-05-12T16:42:59.311Z,11.10
2019-05-12T17:02:53.888Z,11.00
2019-05-12T17:12:05.388Z,10.90
2019-05-12T17:14:48.823Z,11.00
2019-05-12T17:17:21.275Z,10.90
2019-05-12T17:20:33.388Z,10.80
2019-05-12T17:23:27.075Z,10.80
2019-05-12T17:26:16.883Z,10.80
2019-05-12T17:32:30.716Z,10.80
2019-05-12T17:38:56.112Z,10.80
2019-05-12T17:41:48.618Z,10.80
2019-05-12T17:44:43.634Z,10.80
2019-05-12T17:47:21.430Z,10.70
2019-05-12T17:50:40.289Z,10.70
2019-05-12T17:53:44.161Z,10.60
2019-05-12T17:56:47.083Z,10.60
2019-05-12T17:59:44.669Z,10.50
2019-05-12T18:02:30.811Z,10.50
2019-05-12T18:05:27.108Z,10.60
2019-05-12T18:08:23.991Z,10.60
2019-05-12T18:11:24.346Z,10.60
2019-05-12T18:14:27.891Z,10.60
2019-05-12T18:17:53.325Z,10.50
2019-05-12T18:20:37.360Z,10.50
2019-05-12T18:26:33.830Z,10.50
2019-05-12T18:29:39.384Z,10.40
2019-05-12T18:32:57.650Z,10.50
2019-05-12T18:39:03.815Z,10.50
2019-05-12T18:41:40.904Z,10.50
2019-05-12T18:44:38.270Z,10.50
2019-05-12T18:47:43.985Z,10.50
2019-05-12T18:50:50.963Z,10.50
2019-05-12T18:56:45.462Z,10.40
2019-05-12T19:00:01.410Z,10.40
2019-05-12T19:02:53.852Z,10.40
2019-05-12T19:09:17.909Z,10.30
2019-05-12T19:15:21.680Z,10.30
2019-05-12T19:18:10.451Z,10.30
2019-05-12T19:21:16.714Z,10.30
2019-05-12T19:23:54.308Z,10.30
2019-05-12T19:26:40.313Z,10.20
2019-05-12T19:29:38.682Z,10.20
2019-05-12T19:32:28.099Z,10.10
2019-05-12T19:38:35.489Z,10.10
2019-05-12T19:41:37.995Z,10.10
2019-05-12T19:44:30.697Z,10.10
2019-05-12T19:51:05.954Z,10.00
2019-05-12T19:57:05.763Z,10.00
2019-05-12T19:59:44.060Z,9.80
2019-05-12T20:02:34.064Z,9.80
2019-05-12T20:05:38.140Z,9.80
2019-05-12T20:09:05.648Z,9.70
2019-05-12T20:12:15.121Z,9.70
2019-05-12T20:14:50.911Z,9.80
2019-05-12T20:21:27.952Z,9.80
2019-05-12T20:24:55.917Z,9.80
2019-05-12T20:28:08.084Z,9.80
2019-05-12T20:31:23.479Z,9.70
2019-05-12T20:33:57.313Z,9.70
2019-05-12T20:40:20.360Z,9.70
2019-05-12T20:43:08.605Z,9.70
2019-05-12T20:53:14.313Z,9.70
2019-05-12T21:02:44.232Z,9.60
2019-05-12T21:05:43.845Z,9.60
2019-05-12T21:08:57.585Z,9.50
2019-05-12T21:11:50.801Z,9.50
2019-05-12T21:14:51.294Z,9.40
2019-05-12T21:20:59.008Z,9.40
2019-05-12T21:23:53.873Z,9.40
2019-05-12T21:26:47.966Z,9.30
2019-05-12T21:30:00.635Z,9.40
2019-05-12T21:39:53.540Z,9.30
2019-05-12T21:43:04.172Z,9.30
2019-05-12T21:46:38.307Z,9.20
2019-05-12T21:49:33.313Z,9.20
2019-05-12T21:52:26.840Z,9.30
2019-05-12T22:00:59.595Z,9.20
2019-05-12T22:04:14.350Z,9.20
2019-05-12T22:07:06.978Z,9.20
2019-05-12T22:10:04.776Z,9.20
2019-05-12T22:13:18.210Z,9.20
2019-05-12T22:16:14.036Z,9.20
2019-05-12T22:19:30.973Z,9.20
2019-05-12T22:22:44.422Z,9.20
2019-05-12T22:31:55.732Z,9.10
2019-05-12T22:34:54.325Z,9.20
2019-05-12T22:37:34.850Z,9.10
2019-05-12T22:40:15.155Z,9.20
2019-05-12T22:43:15.073Z,9.10
2019-05-12T22:54:00.411Z,9.10
2019-05-12T22:57:04.183Z,9.10
2019-05-12T23:00:13.462Z,9.00
2019-05-12T23:06:27.309Z,8.90
2019-05-12T23:09:06.865Z,8.90
2019-05-12T23:15:02.924Z,8.90
2019-05-12T23:17:31.074Z,8.90
2019-05-12T23:20:35.671Z,8.90
2019-05-12T23:23:33.992Z,8.90
2019-05-12T23:30:15.756Z,8.90
2019-05-12T23:36:56.856Z,8.90
2019-05-12T23:40:25.410Z,8.80
2019-05-12T23:47:09.892Z,8.80
2019-05-12T23:50:26.818Z,8.70
2019-05-12T23:56:34.648Z,8.80
